Time;durP1;ratioP1;P1;durP2;ratioP2;P2;SDS_P1;SDS_P2;PMS_P1;PMS_P2;Temp;Humidity;BMP_temperature;BMP_pressure;BME280_temperature;BME280_humidity;BME280_pressure;Samples;Min_cycle;Max_cycle;Signal;HPM_P1;HPM_P2
2022/05/25 00:00:38;;;;;;;;;0.00;0.00;;;;;18.39;48.46;100862.31;2057991;28;47598;-63
2022/05/25 00:01:38;;;;;;;;;0.75;0.25;;;;;18.39;48.73;100867.69;2074740;28;46967;-64
2022/05/25 00:02:40;;;;;;;;;3.00;2.00;;;;;18.40;48.63;100869.44;2064647;28;47970;-63
2022/05/25 00:03:40;;;;;;;;;1.00;1.00;;;;;18.40;48.45;100866.75;2057770;28;47946;-64
2022/05/25 00:04:41;;;;;;;;;2.00;2.00;;;;;18.41;48.26;100867.63;2064952;28;47941;-63
2022/05/25 00:05:42;;;;;;;;;0.00;0.00;;;;;18.41;48.61;100870.31;2071183;28;47191;-63
2022/05/25 00:06:44;;;;;;;;;1.00;1.00;;;;;18.40;48.58;100864.06;2073561;27;48582;-64
2022/05/25 00:07:45;;;;;;;;;1.50;1.00;;;;;18.40;48.73;100865.88;2066233;28;47788;-64
2022/05/25 00:08:45;;;;;;;;;1.00;1.00;;;;;18.39;48.57;100861.47;2058791;28;47468;-63
2022/05/25 00:09:46;;;;;;;;;3.00;1.00;;;;;18.39;49.11;100864.16;2065297;27;47214;-64
2022/05/25 00:10:46;;;;;;;;;1.00;1.00;;;;;18.39;48.78;100864.16;2056280;28;48331;-64
2022/05/25 00:11:47;;;;;;;;;0.00;0.00;;;;;18.38;48.96;100862.41;2061771;27;47324;-63
2022/05/25 00:12:47;;;;;;;;;0.00;0.00;;;;;18.37;48.84;100863.38;2062493;28;48143;-63
2022/05/25 00:13:48;;;;;;;;;0.00;0.00;;;;;18.37;48.87;100860.66;2059370;28;47287;-63
2022/05/25 00:14:49;;;;;;;;;0.00;0.00;;;;;18.37;48.86;100861.53;2077638;28;47541;-65
2022/05/25 00:15:50;;;;;;;;;0.67;0.67;;;;;18.38;48.73;100862.41;2072777;28;47470;-64
2022/05/25 00:16:50;;;;;;;;;1.00;1.00;;;;;18.38;48.90;100857.03;2067659;28;47640;-64
2022/05/25 00:17:51;;;;;;;;;1.67;1.33;;;;;18.38;48.97;100854.34;2061043;28;47906;-63
2022/05/25 00:20:11;;;;;;;;;1.00;1.00;;;;;18.37;48.97;100856.16;2056534;28;48185;-64
2022/05/25 00:21:12;;;;;;;;;0.75;0.75;;;;;18.36;48.99;100857.13;2051267;28;47971;-64
2022/05/25 00:22:12;;;;;;;;;1.00;1.00;;;;;18.36;48.98;100859.81;2073202;28;47937;-64
2022/05/25 00:23:12;;;;;;;;;3.00;2.00;;;;;18.36;49.22;100858.94;2060287;28;47727;-64
2022/05/25 00:24:13;;;;;;;;;2.67;2.67;;;;;18.35;49.07;100859.88;2082463;28;47691;-63
2022/05/25 00:25:17;;;;;;;;;1.67;1.67;;;;;18.34;49.18;100859.03;2058147;28;47903;-64
2022/05/25 00:26:17;;;;;;;;;1.00;1.00;;;;;18.34;48.88;100856.34;2095411;27;47388;-66
2022/05/25 00:27:18;;;;;;;;;0.33;0.33;;;;;18.34;48.93;100858.16;2057451;28;47615;-63
2022/05/25 00:28:18;;;;;;;;;0.00;0.00;;;;;18.33;49.05;100862.66;2059705;28;47432;-65
2022/05/25 00:29:19;;;;;;;;;1.33;0.33;;;;;18.32;49.17;100852.88;2054264;28;47395;-63
2022/05/25 00:30:19;;;;;;;;;0.00;0.00;;;;;18.32;49.13;100857.38;2057647;28;48061;-63
2022/05/25 00:31:20;;;;;;;;;1.00;1.00;;;;;18.31;49.04;100858.31;2056707;28;47565;-62
2022/05/25 00:32:22;;;;;;;;;1.00;1.00;;;;;18.30;48.73;100859.28;2081449;28;47552;-61
2022/05/25 00:33:23;;;;;;;;;2.00;1.00;;;;;18.29;49.00;100857.50;2071582;28;47503;-63
2022/05/25 00:34:23;;;;;;;;;1.00;1.00;;;;;18.28;49.07;100858.44;2088597;28;47291;-63
2022/05/25 00:35:25;;;;;;;;;2.67;2.67;;;;;18.28;49.33;100861.13;2069116;28;47624;-64
2022/05/25 00:36:27;;;;;;;;;1.00;1.00;;;;;18.27;49.14;100862.09;2051083;28;47693;-62
2022/05/25 00:37:27;;;;;;;;;3.50;1.00;;;;;18.27;49.36;100862.09;2051868;28;48076;-64
2022/05/25 00:38:27;;;;;;;;;5.00;4.50;;;;;18.27;49.28;100864.78;2061154;28;47789;-63
2022/05/25 00:39:29;;;;;;;;;4.67;4.00;;;;;18.26;49.26;100854.97;2054395;28;47330;-64
2022/05/25 00:40:39;;;;;;;;;4.75;4.00;;;;;18.26;49.36;100861.22;2067236;28;47358;-64
2022/05/25 00:41:39;;;;;;;;;3.00;3.00;;;;;18.26;49.46;100868.41;2074471;28;47656;-63
2022/05/25 00:42:40;;;;;;;;;3.25;3.25;;;;;18.24;49.53;100866.69;2074630;27;47335;-64
2022/05/25 00:43:42;;;;;;;;;4.33;2.67;;;;;18.23;49.92;100864.94;2060861;28;47330;-64
2022/05/25 00:44:42;;;;;;;;;1.00;1.00;;;;;18.24;49.47;100872.06;2058539;28;47846;-64
2022/05/25 00:46:09;;;;;;;;;0.00;0.00;;;;;18.24;49.44;100876.56;2055047;28;47581;-65
2022/05/25 00:47:16;;;;;;;;;1.25;1.25;;;;;18.22;49.53;100875.75;2049931;28;48259;-64
2022/05/25 00:49:06;;;;;;;;;0.25;0.25;;;;;18.23;49.51;100874.81;2061594;28;47467;-64
2022/05/25 00:50:10;;;;;;;;;0.75;0.75;;;;;18.22;49.44;100878.44;2060643;28;47851;-64
2022/05/25 00:51:21;;;;;;;;;1.00;1.00;;;;;18.23;49.41;100877.50;2057871;28;47894;-63
2022/05/25 00:52:22;;;;;;;;;1.25;1.25;;;;;18.21;49.59;100880.28;2054263;28;47738;-64
2022/05/25 00:53:22;;;;;;;;;2.00;1.00;;;;;18.22;49.56;100881.13;2059114;28;47740;-64
2022/05/25 00:54:34;;;;;;;;;0.33;0.33;;;;;18.21;49.42;100885.66;2059830;28;47844;-64
2022/05/25 00:55:34;;;;;;;;;2.00;2.00;;;;;18.20;49.64;100880.34;2057127;28;48326;-64
2022/05/25 00:56:40;;;;;;;;;0.00;0.00;;;;;18.21;49.63;100882.09;2049962;28;46195;-64
2022/05/25 00:57:44;;;;;;;;;0.25;0.25;;;;;18.19;49.55;100889.34;2052749;28;48971;-63
2022/05/25 00:58:52;;;;;;;;;0.00;0.00;;;;;18.19;49.58;100884.00;2049934;28;47527;-64
2022/05/25 01:00:06;;;;;;;;;1.00;0.00;;;;;18.18;49.46;100887.63;2052722;28;48374;-64
2022/05/25 01:01:07;;;;;;;;;0.75;0.75;;;;;18.18;49.50;100887.63;2048461;28;47596;-64
2022/05/25 01:02:07;;;;;;;;;1.00;1.00;;;;;18.18;49.69;100885.81;2044694;28;47550;-63
2022/05/25 01:03:11;;;;;;;;;0.33;0.33;;;;;18.17;49.67;100878.69;2034639;28;47639;-64
2022/05/25 01:04:14;;;;;;;;;1.25;0.00;;;;;18.17;49.48;100885.88;2040199;28;47746;-64
2022/05/25 01:05:20;;;;;;;;;0.00;0.00;;;;;18.17;49.44;100892.13;2050104;28;47668;-64
2022/05/25 01:06:54;;;;;;;;;0.00;0.00;;;;;18.16;49.53;100884.13;2052392;28;48021;-62
2022/05/25 01:08:14;;;;;;;;;0.50;0.50;;;;;18.15;49.37;100887.75;2050137;28;47781;-64
2022/05/25 01:09:24;;;;;;;;;0.75;0.75;;;;;18.14;49.47;100889.56;2048452;28;47916;-64
2022/05/25 01:10:40;;;;;;;;;0.00;0.00;;;;;18.13;49.67;100893.22;2047260;28;47550;-64
2022/05/25 01:12:10;;;;;;;;;0.00;0.00;;;;;18.12;49.43;100893.28;2053615;28;49501;-64
2022/05/25 01:13:25;;;;;;;;;0.25;0.25;;;;;18.12;49.41;100898.66;2051082;28;47635;-64
2022/05/25 01:15:12;;;;;;;;;0.00;0.00;;;;;18.11;49.30;100897.78;2062622;28;47579;-64
2022/05/25 01:17:02;;;;;;;;;0.00;0.00;;;;;18.11;49.49;100904.97;2073018;28;47506;-65
2022/05/25 01:18:28;;;;;;;;;0.75;0.75;;;;;18.10;49.52;100903.25;2055110;28;47697;-64
2022/05/25 01:19:43;;;;;;;;;2.00;1.75;;;;;18.10;49.46;100903.25;2054844;28;48101;-63
2022/05/25 01:20:52;;;;;;;;;0.25;0.25;;;;;18.09;49.53;100905.06;2054574;28;47676;-64
2022/05/25 01:22:23;;;;;;;;;0.00;0.00;;;;;18.09;49.90;100905.06;2053856;28;47854;-63
2022/05/25 01:23:50;;;;;;;;;0.25;0.25;;;;;18.09;50.00;100901.50;2046892;28;48001;-63
2022/05/25 01:25:14;;;;;;;;;1.00;1.00;;;;;18.08;49.69;100907.81;2048411;28;46817;-62
2022/05/25 01:26:47;;;;;;;;;0.00;0.00;;;;;18.08;49.83;100902.47;2055299;28;47870;-64
2022/05/25 01:27:50;;;;;;;;;0.00;0.00;;;;;18.07;49.76;100904.28;2061136;28;48403;-64
2022/05/25 01:29:02;;;;;;;;;0.00;0.00;;;;;18.06;49.71;100902.53;2067350;28;47988;-64
2022/05/25 01:30:19;;;;;;;;;1.00;1.00;;;;;18.05;50.07;100910.66;2054825;28;47323;-63
2022/05/25 01:31:35;;;;;;;;;2.00;2.00;;;;;18.04;49.97;100900.84;2057951;28;49066;-63
2022/05/25 01:32:35;;;;;;;;;0.75;0.75;;;;;18.03;49.85;100899.97;2069407;28;47864;-64
2022/05/25 01:33:45;;;;;;;;;1.33;1.33;;;;;18.03;50.11;100904.47;2064682;28;47696;-64
2022/05/25 01:34:54;;;;;;;;;2.75;1.75;;;;;18.01;50.52;100901.00;2067451;28;47459;-64
2022/05/25 01:36:11;;;;;;;;;1.25;1.25;;;;;17.99;50.54;100901.09;2063835;28;47958;-64
2022/05/25 01:37:16;;;;;;;;;1.75;1.50;;;;;17.98;50.24;100899.34;2066315;28;45868;-64
2022/05/25 01:38:26;;;;;;;;;1.50;1.50;;;;;17.99;50.24;100901.09;2069567;28;47724;-63
2022/05/25 01:39:31;;;;;;;;;0.00;0.00;;;;;17.98;50.16;100901.16;2071448;28;47574;-64
2022/05/25 01:40:47;;;;;;;;;2.50;1.00;;;;;17.97;50.40;100907.47;2067608;28;47662;-63
2022/05/25 01:41:56;;;;;;;;;1.75;1.75;;;;;17.97;50.25;100904.78;2069876;28;47962;-63
2022/05/25 01:43:03;;;;;;;;;2.00;2.00;;;;;17.95;50.65;100904.88;2071480;28;47610;-63
2022/05/25 01:44:14;;;;;;;;;1.00;1.00;;;;;17.96;50.47;100924.53;2074654;28;45841;-64
2022/05/25 01:45:16;;;;;;;;;0.00;0.00;;;;;17.94;50.65;100920.13;2066063;28;48031;-63
2022/05/25 01:46:31;;;;;;;;;0.75;0.75;;;;;17.92;50.52;100919.34;2077711;28;45531;-63
2022/05/25 01:47:34;;;;;;;;;1.00;0.25;;;;;17.93;50.75;100917.50;2066961;28;47828;-63
2022/05/25 01:48:40;;;;;;;;;1.00;1.00;;;;;17.92;50.43;100919.34;2067303;28;47624;-63
2022/05/25 01:49:51;;;;;;;;;2.00;1.00;;;;;17.92;50.52;100921.16;2089257;28;48160;-63
2022/05/25 01:51:14;;;;;;;;;1.00;1.00;;;;;17.91;50.92;100916.69;2092760;28;47979;-63
2022/05/25 01:52:19;;;;;;;;;2.00;2.00;;;;;17.91;50.69;100919.38;2092908;28;47557;-63
2022/05/25 01:53:25;;;;;;;;;1.00;1.00;;;;;17.90;50.69;100921.19;2090453;28;47947;-63
2022/05/25 01:54:30;;;;;;;;;1.00;1.00;;;;;17.89;50.82;100924.81;2055831;28;47638;-64
2022/05/25 01:55:38;;;;;;;;;2.00;2.00;;;;;17.89;50.94;100922.13;2058058;28;47935;-63
2022/05/25 01:56:42;;;;;;;;;1.00;1.00;;;;;17.87;50.92;100918.66;2059046;28;47739;-63
2022/05/25 01:57:47;;;;;;;;;0.50;0.50;;;;;17.84;50.95;100924.19;2064525;28;47686;-63
2022/05/25 01:58:57;;;;;;;;;1.00;1.00;;;;;17.85;51.31;100927.75;2070080;27;47617;-63
2022/05/25 01:59:58;;;;;;;;;2.00;2.00;;;;;17.83;51.32;100924.28;2087267;28;48400;-63
2022/05/25 02:00:59;;;;;;;;;1.33;1.33;;;;;17.81;51.15;100921.66;2064065;28;47810;-63
2022/05/25 02:04:45;;;;;;;;;3.00;3.00;;;;;17.77;51.43;100927.22;2062220;28;47431;-63
2022/05/25 02:05:53;;;;;;;;;2.75;2.75;;;;;17.74;51.49;100928.25;2064759;28;47911;-63
2022/05/25 02:07:28;;;;;;;;;2.00;2.00;;;;;17.73;51.28;100923.84;2059730;28;47443;-63
2022/05/25 02:08:48;;;;;;;;;2.25;2.25;;;;;17.74;51.56;100930.94;2057391;28;47756;-64
2022/05/25 02:10:05;;;;;;;;;2.75;2.75;;;;;17.74;51.60;100922.88;2067569;28;47859;-64
2022/05/25 02:11:33;;;;;;;;;2.25;2.00;;;;;17.74;51.53;100922.88;2059013;28;47652;-64
2022/05/25 02:13:11;;;;;;;;;2.25;2.25;;;;;17.73;51.41;100925.66;2064442;28;48024;-64
2022/05/25 02:14:28;;;;;;;;;1.75;1.75;;;;;17.71;51.40;100925.72;2077213;28;47486;-64
2022/05/25 02:15:59;;;;;;;;;2.00;1.25;;;;;17.69;51.78;100924.94;2073732;28;47719;-64
2022/05/25 02:17:18;;;;;;;;;1.75;1.75;;;;;17.64;51.66;100930.47;2078444;28;47461;-64
2022/05/25 02:18:36;;;;;;;;;1.50;1.50;;;;;17.62;51.94;100935.03;2081154;28;48061;-65
2022/05/25 02:19:42;;;;;;;;;2.00;2.00;;;;;17.61;51.58;100932.44;2078634;28;47174;-64
2022/05/25 02:21:22;;;;;;;;;1.00;1.00;;;;;17.61;51.78;100937.81;2080331;28;47774;-64
2022/05/25 02:22:30;;;;;;;;;2.75;2.00;;;;;17.62;51.62;100935.03;2052875;28;48027;-63
2022/05/25 02:23:50;;;;;;;;;1.75;1.75;;;;;17.63;52.00;100935.91;2054416;28;47665;-63
2022/05/25 02:25:07;;;;;;;;;2.25;2.25;;;;;17.62;52.63;100943.09;2039740;28;47814;-64
2022/05/25 02:26:17;;;;;;;;;1.00;1.00;;;;;17.61;52.17;100929.75;2041322;28;47548;-62
2022/05/25 02:27:46;;;;;;;;;1.00;1.00;;;;;17.59;52.09;100943.25;2052019;28;47343;-63
2022/05/25 02:28:55;;;;;;;;;0.75;0.75;;;;;17.58;52.08;100938.81;2044133;28;47674;-63
2022/05/25 02:30:06;;;;;;;;;2.75;2.25;;;;;17.58;52.01;100943.31;2046195;28;47337;-62
2022/05/25 02:31:14;;;;;;;;;3.00;3.00;;;;;17.58;52.35;100932.59;2044781;28;47569;-63
2022/05/25 02:32:20;;;;;;;;;2.25;2.25;;;;;17.56;52.12;100943.41;2046456;28;47728;-63
2022/05/25 02:33:30;;;;;;;;;4.00;4.00;;;;;17.56;51.70;100942.53;2045807;28;48376;-63
2022/05/25 02:34:32;;;;;;;;;3.25;2.50;;;;;17.54;51.92;100941.72;2044503;28;47541;-62
2022/05/25 02:35:35;;;;;;;;;1.50;1.00;;;;;17.53;51.99;100938.19;2047430;28;47740;-63
2022/05/25 02:36:37;;;;;;;;;1.75;1.75;;;;;17.54;52.29;100944.41;2043942;28;47318;-62
2022/05/25 02:37:38;;;;;;;;;1.75;1.75;;;;;17.54;52.04;100939.91;2044614;28;47981;-63
2022/05/25 02:38:41;;;;;;;;;2.33;2.33;;;;;17.56;51.71;100945.22;2044408;28;47681;-63
2022/05/25 02:39:43;;;;;;;;;1.25;1.25;;;;;17.57;52.09;100945.13;2046638;28;47994;-64
2022/05/25 02:40:44;;;;;;;;;2.75;2.75;;;;;17.56;51.96;100943.41;2043985;28;48047;-63
2022/05/25 02:41:52;;;;;;;;;2.00;2.00;;;;;17.57;52.07;100945.13;2046619;28;47277;-62
2022/05/25 02:42:53;;;;;;;;;0.50;0.50;;;;;17.57;51.93;100947.81;2043277;28;48327;-64
2022/05/25 02:43:54;;;;;;;;;1.00;1.00;;;;;17.57;52.10;100944.25;2046112;28;47617;-63
2022/05/25 02:44:54;;;;;;;;;0.00;0.00;;;;;17.54;52.19;100947.97;2044288;28;48262;-64
2022/05/25 02:45:56;;;;;;;;;1.67;1.67;;;;;17.54;52.35;100952.47;2043586;28;47702;-62
2022/05/25 02:46:56;;;;;;;;;2.75;2.00;;;;;17.53;52.31;100948.91;2042345;28;48098;-63
2022/05/25 02:47:57;;;;;;;;;2.00;2.00;;;;;17.52;52.22;100947.16;2038692;28;47969;-63
2022/05/25 02:48:58;;;;;;;;;2.00;2.00;;;;;17.53;52.30;100953.38;2036276;28;47784;-63
2022/05/25 02:49:58;;;;;;;;;2.00;2.00;;;;;17.52;52.04;100952.50;2046588;28;47542;-63
2022/05/25 02:50:59;;;;;;;;;1.00;1.00;;;;;17.53;52.08;100954.28;2043905;28;47619;-64
2022/05/25 02:51:59;;;;;;;;;2.00;2.00;;;;;17.54;52.04;100963.19;2060125;28;47497;-65
2022/05/25 02:53:00;;;;;;;;;1.00;1.00;;;;;17.54;52.31;100961.38;2068731;28;47235;-64
2022/05/25 02:54:00;;;;;;;;;1.33;1.33;;;;;17.54;51.92;100965.88;2070276;28;47935;-63
2022/05/25 02:55:01;;;;;;;;;2.00;2.00;;;;;17.55;52.04;100960.44;2072142;28;47618;-63
2022/05/25 02:56:05;;;;;;;;;1.00;1.00;;;;;17.55;51.91;100957.75;2070534;28;47250;-63
2022/05/25 02:57:07;;;;;;;;;0.75;0.75;;;;;17.56;52.37;100959.50;2066743;28;47133;-63
2022/05/25 02:58:08;;;;;;;;;0.75;0.75;;;;;17.54;52.20;100956.03;2070511;28;47550;-64
2022/05/25 02:59:08;;;;;;;;;1.33;0.67;;;;;17.56;52.18;100964.00;2068327;28;47532;-63
2022/05/25 03:00:10;;;;;;;;;1.67;1.67;;;;;17.54;52.16;100963.19;2048985;28;47215;-64
2022/05/25 03:01:10;;;;;;;;;0.00;0.00;;;;;17.54;52.43;100960.53;2035157;28;47704;-63
2022/05/25 03:02:11;;;;;;;;;1.33;1.33;;;;;17.53;52.48;100962.34;2041304;28;47573;-63
2022/05/25 03:03:12;;;;;;;;;1.00;1.00;;;;;17.53;52.14;100966.78;2034715;28;47801;-63
2022/05/25 03:04:13;;;;;;;;;1.75;1.75;;;;;17.53;52.59;100969.47;2037645;28;47765;-62
2022/05/25 03:05:13;;;;;;;;;2.00;2.00;;;;;17.53;52.64;100966.78;2036869;28;47977;-62
2022/05/25 03:06:14;;;;;;;;;0.67;0.00;;;;;17.52;52.30;100968.63;2045446;28;47961;-63
2022/05/25 03:07:15;;;;;;;;;1.33;1.33;;;;;17.52;52.76;100965.06;2051514;28;47621;-64
2022/05/25 03:08:15;;;;;;;;;2.67;2.67;;;;;17.52;52.62;100965.06;2058275;28;48336;-64
2022/05/25 03:09:16;;;;;;;;;1.00;1.00;;;;;17.52;52.56;100968.63;2063586;28;47361;-64
2022/05/25 03:10:16;;;;;;;;;3.33;3.33;;;;;17.52;52.56;100973.97;2063337;28;47786;-63
2022/05/25 03:11:17;;;;;;;;;18.00;18.00;;;;;17.51;52.62;100974.06;2059756;27;47892;-64
2022/05/25 03:12:18;;;;;;;;;18.75;17.75;;;;;17.49;52.47;100973.25;2070093;28;47227;-64
2022/05/25 03:13:18;;;;;;;;;20.25;18.25;;;;;17.47;52.80;100967.97;2060865;28;47977;-62
2022/05/25 03:14:18;;;;;;;;;32.00;31.00;;;;;17.45;52.84;100972.53;2065437;28;48313;-64
2022/05/25 03:15:20;;;;;;;;;29.25;28.75;;;;;17.43;52.40;100973.56;2057089;28;47605;-65
2022/05/25 03:16:22;;;;;;;;;6.25;6.25;;;;;17.40;52.45;100973.66;2059099;28;47884;-62
2022/05/25 03:17:23;;;;;;;;;5.75;4.00;;;;;17.40;52.56;100984.41;2060423;28;47338;-63
2022/05/25 03:18:24;;;;;;;;;2.00;2.00;;;;;17.39;52.60;100980.84;2064145;28;47449;-61
2022/05/25 03:19:25;;;;;;;;;2.00;2.00;;;;;17.38;52.80;100979.13;2062069;28;47437;-64
2022/05/25 03:20:25;;;;;;;;;2.00;2.00;;;;;17.38;52.66;100973.75;2062136;28;48074;-63
2022/05/25 03:21:26;;;;;;;;;1.00;1.00;;;;;17.37;52.90;100977.38;2058446;28;47948;-65
2022/05/25 03:22:26;;;;;;;;;0.33;0.33;;;;;17.37;52.80;100982.75;2068585;28;47793;-64
2022/05/25 03:23:27;;;;;;;;;1.67;1.67;;;;;17.38;52.81;100981.78;2058702;28;48437;-64
2022/05/25 03:24:27;;;;;;;;;0.33;0.33;;;;;17.37;52.87;100982.75;2063438;28;47293;-64
2022/05/25 03:25:27;;;;;;;;;0.00;0.00;;;;;17.38;53.10;100983.59;2055705;28;47647;-65
2022/05/25 03:26:28;;;;;;;;;0.67;0.67;;;;;17.37;53.38;100990.78;2060865;28;47730;-64
2022/05/25 03:27:28;;;;;;;;;1.00;1.00;;;;;17.37;53.13;100988.09;2079992;28;47862;-64
2022/05/25 03:28:29;;;;;;;;;0.00;0.00;;;;;17.36;52.94;100989.91;2070355;28;47872;-61
2022/05/25 03:29:30;;;;;;;;;1.00;1.00;;;;;17.36;52.98;100995.28;2059947;27;48012;-62
2022/05/25 03:30:31;;;;;;;;;1.00;1.00;;;;;17.36;52.93;100994.41;2071254;28;48277;-62
2022/05/25 03:31:31;;;;;;;;;1.00;1.00;;;;;17.36;53.20;101003.34;2056128;28;47653;-64
2022/05/25 03:32:32;;;;;;;;;1.00;1.00;;;;;17.34;53.25;101007.03;2066891;28;47435;-64
2022/05/25 03:33:33;;;;;;;;;2.00;2.00;;;;;17.34;53.04;101005.22;2057887;28;47260;-64
2022/05/25 03:34:34;;;;;;;;;1.00;0.25;;;;;17.32;53.00;101007.09;2061161;28;48466;-63
2022/05/25 03:35:34;;;;;;;;;0.00;0.00;;;;;17.33;53.20;101007.97;2078951;28;47402;-63
2022/05/25 03:36:35;;;;;;;;;1.00;1.00;;;;;17.32;52.92;101014.28;2063974;28;47246;-63
2022/05/25 03:37:36;;;;;;;;;1.33;1.33;;;;;17.32;53.13;101000.88;2059800;28;47494;-63
2022/05/25 03:38:37;;;;;;;;;1.00;1.00;;;;;17.31;53.41;101002.69;2068850;28;47514;-63
2022/05/25 03:39:37;;;;;;;;;0.33;0.33;;;;;17.31;53.51;101005.38;2065600;28;48097;-62
2022/05/25 03:40:38;;;;;;;;;1.00;1.00;;;;;17.32;53.60;101003.56;2069121;27;48166;-63
2022/05/25 03:41:39;;;;;;;;;1.75;1.75;;;;;17.30;53.28;101009.00;2055271;28;47665;-65
2022/05/25 03:42:41;;;;;;;;;2.33;2.33;;;;;17.29;53.33;101009.06;2057640;28;47964;-64
2022/05/25 03:43:42;;;;;;;;;1.25;1.25;;;;;17.27;53.55;101011.78;2059076;28;48227;-64
2022/05/25 03:44:42;;;;;;;;;1.67;1.00;;;;;17.27;53.55;101016.28;2066685;28;46438;-64
2022/05/25 03:45:44;;;;;;;;;0.00;0.00;;;;;17.26;53.22;101020.78;2059753;27;47492;-63
2022/05/25 03:46:44;;;;;;;;;0.75;0.75;;;;;17.25;53.59;101018.16;2058378;28;47977;-63
2022/05/25 03:47:46;;;;;;;;;1.33;1.33;;;;;17.24;53.38;101021.78;2064431;28;48214;-64
2022/05/25 03:48:46;;;;;;;;;2.50;1.75;;;;;17.24;53.21;101025.34;2070883;27;47984;-64
2022/05/25 03:49:46;;;;;;;;;1.00;1.00;;;;;17.24;53.31;101032.50;2066698;28;47642;-63
2022/05/25 03:50:47;;;;;;;;;2.67;2.00;;;;;17.24;53.58;101033.38;2071544;27;47510;-65
2022/05/25 03:51:48;;;;;;;;;2.00;2.00;;;;;17.24;53.62;101032.50;2086420;28;47767;-63
2022/05/25 03:52:49;;;;;;;;;1.25;1.25;;;;;17.24;53.52;101032.50;2063221;28;48105;-62
2022/05/25 03:53:49;;;;;;;;;1.00;1.00;;;;;17.24;53.49;101038.75;2070056;27;47698;-63
2022/05/25 03:54:50;;;;;;;;;1.33;0.00;;;;;17.25;53.55;101039.63;2058039;28;48188;-64
2022/05/25 03:55:52;;;;;;;;;1.00;1.00;;;;;17.24;53.38;101037.88;2054834;28;48194;-64
2022/05/25 03:56:53;;;;;;;;;1.50;1.50;;;;;17.23;53.98;101041.50;2061301;28;47660;-64
2022/05/25 03:57:53;;;;;;;;;0.00;0.00;;;;;17.22;53.63;101045.13;2070770;27;47700;-64
2022/05/25 03:58:54;;;;;;;;;3.00;2.00;;;;;17.22;53.45;101045.13;2063842;27;47678;-64
2022/05/25 03:59:54;;;;;;;;;1.00;1.00;;;;;17.20;53.57;101047.88;2088085;28;48298;-64
2022/05/25 04:00:55;;;;;;;;;2.00;2.00;;;;;17.18;53.68;101041.72;2062630;28;48074;-65
2022/05/25 04:01:55;;;;;;;;;2.67;2.67;;;;;17.18;53.64;101044.41;2065718;27;47949;-64
2022/05/25 04:02:57;;;;;;;;;1.67;1.67;;;;;17.19;53.60;101042.59;2057392;28;47800;-64
2022/05/25 04:03:58;;;;;;;;;1.00;1.00;;;;;17.18;53.83;101040.84;2068265;28;47669;-64
2022/05/25 04:05:08;;;;;;;;;1.00;1.00;;;;;17.19;53.73;101042.59;2060195;28;47276;-64
2022/05/25 04:06:08;;;;;;;;;2.50;2.50;;;;;17.19;53.67;101045.28;2061207;28;48023;-63
2022/05/25 04:07:09;;;;;;;;;0.00;0.00;;;;;17.19;53.85;101043.47;2055757;28;47358;-61
2022/05/25 04:08:10;;;;;;;;;1.00;1.00;;;;;17.19;53.95;101046.13;2089270;28;48317;-63
2022/05/25 04:09:10;;;;;;;;;1.00;1.00;;;;;17.20;53.68;101047.00;2059702;28;47294;-64
2022/05/25 04:10:14;;;;;;;;;1.67;1.67;;;;;17.20;53.65;101044.31;2062750;28;47187;-64
2022/05/25 04:11:14;;;;;;;;;1.75;1.00;;;;;17.20;53.88;101039.84;2062180;28;47468;-61
2022/05/25 04:12:15;;;;;;;;;2.33;2.33;;;;;17.20;53.91;101042.50;2073642;28;47589;-63
2022/05/25 04:13:16;;;;;;;;;1.00;1.00;;;;;17.22;53.69;101045.13;2062062;27;47652;-64
2022/05/25 04:14:17;;;;;;;;;2.00;2.00;;;;;17.21;53.68;101044.25;2102676;28;48114;-63
2022/05/25 04:15:23;;;;;;;;;2.00;2.00;;;;;17.22;53.84;101042.44;2095865;27;47940;-62
2022/05/25 04:16:23;;;;;;;;;1.00;1.00;;;;;17.21;53.50;101043.38;2063936;28;47549;-64
2022/05/25 04:17:24;;;;;;;;;1.00;1.00;;;;;17.22;53.60;101045.13;2054795;28;47940;-63
2022/05/25 04:18:24;;;;;;;;;1.67;1.67;;;;;17.22;53.41;101045.13;2065202;28;47480;-62
2022/05/25 04:19:25;;;;;;;;;3.00;0.33;;;;;17.22;53.50;101050.50;2059722;28;47644;-62
2022/05/25 04:20:27;;;;;;;;;2.00;2.00;;;;;17.22;53.97;101042.44;2064801;28;45619;-63
2022/05/25 04:21:28;;;;;;;;;0.75;0.75;;;;;17.22;53.09;101040.63;2061610;28;48075;-62
2022/05/25 04:22:29;;;;;;;;;2.33;1.33;;;;;17.22;53.41;101046.00;2069198;28;47284;-62
2022/05/25 04:23:30;;;;;;;;;1.00;1.00;;;;;17.22;53.75;101046.00;2063142;28;47579;-64
2022/05/25 04:24:30;;;;;;;;;0.67;0.67;;;;;17.20;53.94;101045.19;2083371;27;47944;-64
2022/05/25 04:25:31;;;;;;;;;1.67;1.67;;;;;17.20;53.79;101047.88;2057777;28;46351;-62
2022/05/25 04:26:32;;;;;;;;;1.00;1.00;;;;;17.20;53.73;101049.69;2062707;28;47699;-63
2022/05/25 04:27:32;;;;;;;;;2.33;2.33;;;;;17.19;53.74;101051.50;2076106;28;47747;-62
2022/05/25 04:28:33;;;;;;;;;2.33;2.00;;;;;17.19;53.28;101053.31;2064165;27;47314;-63
2022/05/25 04:29:37;;;;;;;;;1.33;1.33;;;;;17.19;53.89;101056.88;2056708;28;47643;-65
2022/05/25 04:30:37;;;;;;;;;1.75;1.75;;;;;17.19;53.46;101047.94;2069550;28;47811;-63
2022/05/25 04:31:38;;;;;;;;;0.33;0.33;;;;;17.18;53.51;101052.44;2061819;28;48087;-64
2022/05/25 04:32:39;;;;;;;;;1.33;1.33;;;;;17.18;53.59;101060.50;2080345;27;47501;-64
2022/05/25 04:33:40;;;;;;;;;1.75;1.50;;;;;17.19;53.62;101054.19;2053722;28;47337;-64
2022/05/25 04:34:41;;;;;;;;;1.00;1.00;;;;;17.18;53.62;101062.31;2060047;28;47848;-63
2022/05/25 04:35:42;;;;;;;;;2.00;2.00;;;;;17.16;53.77;101057.00;2074409;28;47303;-64
2022/05/25 04:36:44;;;;;;;;;2.50;2.50;;;;;17.16;53.86;101061.50;2061112;28;47568;-63
2022/05/25 04:38:03;;;;;;;;;1.50;1.00;;;;;17.15;53.27;101057.03;2058336;28;47481;-63
2022/05/25 04:39:03;;;;;;;;;0.75;0.75;;;;;17.15;53.80;101062.41;2056332;28;48030;-63
2022/05/25 04:40:04;;;;;;;;;0.67;0.67;;;;;17.14;53.74;101061.53;2075149;28;47111;-63
2022/05/25 04:41:05;;;;;;;;;2.00;1.50;;;;;17.14;53.67;101066.91;2055290;28;47864;-63
2022/05/25 04:42:05;;;;;;;;;1.00;1.00;;;;;17.13;53.73;101073.22;2101359;28;47877;-64
2022/05/25 04:43:12;;;;;;;;;3.00;2.00;;;;;17.13;53.46;101072.34;2069312;28;48043;-63
2022/05/25 04:44:12;;;;;;;;;2.25;2.25;;;;;17.12;53.44;101073.28;2059425;28;47415;-63
2022/05/25 04:45:13;;;;;;;;;2.00;2.00;;;;;17.12;53.29;101073.28;2058511;28;48231;-63
2022/05/25 04:46:13;;;;;;;;;2.00;2.00;;;;;17.11;53.64;101077.78;2068000;27;47734;-63
2022/05/25 04:47:14;;;;;;;;;1.00;1.00;;;;;17.11;53.08;101079.59;2058208;28;47991;-63
2022/05/25 04:48:16;;;;;;;;;4.00;3.00;;;;;17.09;53.45;101074.28;2078563;28;47160;-64
2022/05/25 04:49:17;;;;;;;;;2.00;1.00;;;;;17.09;53.64;101074.28;2055647;28;47528;-63
2022/05/25 04:50:19;;;;;;;;;2.00;2.00;;;;;17.09;53.45;101079.66;2085820;28;47469;-63
2022/05/25 04:51:19;;;;;;;;;2.75;2.75;;;;;17.10;53.23;101080.53;2066026;28;48397;-62
2022/05/25 04:52:20;;;;;;;;;2.00;2.00;;;;;17.10;53.16;101077.84;2081497;27;47582;-61
2022/05/25 04:53:21;;;;;;;;;2.00;2.00;;;;;17.10;53.41;101078.72;2070890;28;48139;-62
2022/05/25 04:54:22;;;;;;;;;3.50;2.25;;;;;17.10;53.26;101077.84;2059987;28;47572;-62
2022/05/25 04:58:01;;;;;;;;;4.50;4.00;;;;;17.08;52.96;101085.94;2077627;28;47843;-63
2022/05/25 04:59:01;;;;;;;;;4.50;4.50;;;;;17.09;52.92;101081.47;2058886;27;47794;-63
2022/05/25 05:00:05;;;;;;;;;3.33;3.33;;;;;17.09;52.49;101089.50;2090645;28;47634;-64
2022/05/25 05:01:08;;;;;;;;;3.00;3.00;;;;;17.08;52.27;101094.00;2068562;28;46420;-64
2022/05/25 05:02:08;;;;;;;;;4.25;3.75;;;;;17.08;52.84;101094.00;2058409;28;47877;-64
2022/05/25 05:03:09;;;;;;;;;6.33;5.00;;;;;17.07;52.71;101089.56;2057712;28;47819;-64
2022/05/25 05:04:09;;;;;;;;;3.00;3.00;;;;;17.09;52.45;101095.75;2059271;28;47539;-64
2022/05/25 05:05:12;;;;;;;;;3.00;3.00;;;;;17.10;52.35;101096.59;2056329;28;47684;-64
2022/05/25 05:06:13;;;;;;;;;4.75;4.00;;;;;17.10;52.63;101094.81;2078198;28;47671;-63
2022/05/25 05:07:14;;;;;;;;;3.33;3.33;;;;;17.09;52.39;101093.06;2055009;28;47889;-63
2022/05/25 05:08:15;;;;;;;;;9.20;7.40;;;;;17.11;52.19;101099.22;2067514;27;48073;-63
2022/05/25 05:09:16;;;;;;;;;6.00;4.00;;;;;17.11;52.64;101099.22;2062189;28;47355;-64